Time;durP1;ratioP1;P1;durP2;ratioP2;P2;SDS_P1;SDS_P2;PMS_P1;PMS_P2;Temp;Humidity;BMP_temperature;BMP_pressure;BME280_temperature;BME280_humidity;BME280_pressure;Samples;Min_cycle;Max_cycle;Signal;HPM_P1;HPM_P2
2023/07/06 00:02:00;;;;;;;11.03;4.17;;;13.90;99.90;;;;;;5094154;28;20371;-56
2023/07/06 00:04:26;;;;;;;6.60;3.40;;;13.90;99.90;;;;;;5093788;28;20550;-56
2023/07/06 00:06:52;;;;;;;5.90;3.70;;;13.90;99.90;;;;;;5094167;28;20186;-56
2023/07/06 00:09:18;;;;;;;12.20;4.53;;;13.80;99.90;;;;;;5093741;28;20408;-56
2023/07/06 00:11:44;;;;;;;10.10;4.30;;;13.80;1.00;;;;;;5094067;28;20179;-57
2023/07/06 00:14:11;;;;;;;5.00;4.27;;;13.70;1.00;;;;;;5093712;28;20503;-57
2023/07/06 00:16:43;;;;;;;7.87;4.47;;;13.80;1.00;;;;;;5093817;28;20181;-58
2023/07/06 00:19:09;;;;;;;6.57;4.57;;;13.70;1.00;;;;;;5095602;28;20460;-58
2023/07/06 00:21:35;;;;;;;7.77;4.60;;;13.70;1.00;;;;;;5097358;28;20420;-57
2023/07/06 00:24:00;;;;;;;5.37;4.23;;;13.60;1.00;;;;;;5097222;28;20204;-57
2023/07/06 00:26:26;;;;;;;9.73;4.40;;;13.60;1.00;;;;;;5097183;28;20179;-56
2023/07/06 00:28:53;;;;;;;9.13;4.80;;;13.50;63.70;;;;;;5097175;28;20639;-56
2023/07/06 00:31:21;;;;;;;7.73;4.47;;;13.50;53.70;;;;;;5097061;28;20890;-56
2023/07/06 00:33:52;;;;;;;11.03;4.47;;;13.50;99.90;;;;;;5097010;28;21010;-56
2023/07/06 00:36:17;;;;;;;8.23;4.27;;;13.50;99.90;;;;;;5097088;28;20424;-55
2023/07/06 00:38:44;;;;;;;6.77;4.77;;;13.50;99.90;;;;;;5096908;28;20557;-56
2023/07/06 00:41:11;;;;;;;6.80;4.70;;;13.50;99.90;;;;;;5097115;28;20224;-56
2023/07/06 00:44:26;;;;;;;6.90;4.80;;;13.50;99.90;;;;;;5097112;28;20481;-56
2023/07/06 00:46:52;;;;;;;10.30;4.90;;;13.40;99.90;;;;;;5093414;28;20435;-56
2023/07/06 00:49:24;;;;;;;9.13;4.70;;;13.40;99.90;;;;;;5096712;28;20770;-56
2023/07/06 00:51:50;;;;;;;7.87;4.90;;;13.40;99.90;;;;;;5096804;28;20174;-55
2023/07/06 00:54:18;;;;;;;11.63;5.10;;;13.40;99.90;;;;;;5096886;28;20545;-56
2023/07/06 00:56:47;;;;;;;11.67;5.67;;;13.40;1.00;;;;;;5096724;28;20197;-56
2023/07/06 00:59:19;;;;;;;7.97;5.10;;;13.30;99.90;;;;;;5096960;28;20992;-56
2023/07/06 01:01:46;;;;;;;7.80;4.63;;;13.30;1.00;;;;;;5097101;28;20429;-55
2023/07/06 01:04:15;;;;;;;7.17;4.97;;;13.20;1.00;;;;;;5096724;28;20424;-55
2023/07/06 01:06:47;;;;;;;8.60;4.93;;;13.20;1.00;;;;;;5096294;28;20413;-54
2023/07/06 01:09:14;;;;;;;14.63;5.13;;;13.20;1.00;;;;;;5096555;28;20400;-55
2023/07/06 01:11:41;;;;;;;10.30;5.23;;;13.20;1.00;;;;;;5096770;28;20407;-54
2023/07/06 01:14:12;;;;;;;6.90;5.00;;;13.20;1.00;;;;;;5096679;28;20420;-55
2023/07/06 01:16:59;;;;;;;9.40;4.97;;;13.10;38.30;;;;;;5096429;28;20407;-54
2023/07/06 01:19:56;;;;;;;9.37;5.10;;;13.10;99.90;;;;;;5096326;28;20924;-54
2023/07/06 01:22:59;;;;;;;8.03;5.17;;;13.00;99.90;;;;;;5096321;28;20473;-55
2023/07/06 01:25:45;;;;;;;6.80;4.77;;;12.90;99.90;;;;;;5096333;28;20404;-55
2023/07/06 01:28:23;;;;;;;8.10;5.20;;;12.90;1.00;;;;;;5096307;28;20392;-55
2023/07/06 01:31:24;;;;;;;9.10;5.70;;;12.90;1.00;;;;;;5095414;28;20478;-55
2023/07/06 01:34:11;;;;;;;13.87;7.67;;;12.90;1.00;;;;;;5096386;28;20402;-56
2023/07/06 01:37:02;;;;;;;10.00;5.50;;;12.80;99.90;;;;;;5096168;28;20904;-56
2023/07/06 01:39:28;;;;;;;9.10;5.67;;;12.80;99.90;;;;;;5095635;28;20783;-56
2023/07/06 01:42:12;;;;;;;13.63;5.97;;;12.80;1.00;;;;;;5095559;28;20432;-56
2023/07/06 01:44:42;;;;;;;12.47;6.20;;;12.80;1.00;;;;;;5095129;28;20190;-57
2023/07/06 01:47:09;;;;;;;11.63;5.80;;;12.80;1.00;;;;;;5095227;28;20879;-56
2023/07/06 01:49:35;;;;;;;11.73;6.10;;;12.70;1.00;;;;;;5095080;28;20457;-55
2023/07/06 01:52:07;;;;;;;7.30;5.90;;;12.70;1.00;;;;;;5095415;28;20564;-56
2023/07/06 01:54:44;;;;;;;6.60;5.57;;;12.60;1.00;;;;;;5095508;28;20987;-57
2023/07/06 01:57:27;;;;;;;9.20;6.03;;;12.60;4.90;;;;;;5095631;28;20392;-56
2023/07/06 01:59:57;;;;;;;10.53;5.40;;;12.60;1.00;;;;;;5096057;28;20397;-57
2023/07/06 02:02:23;;;;;;;11.00;5.60;;;12.60;99.90;;;;;;5095643;28;20400;-56
2023/07/06 02:04:52;;;;;;;11.87;6.20;;;12.60;3.20;;;;;;5095525;28;20573;-56
2023/07/06 02:07:20;;;;;;;13.47;6.60;;;12.50;99.90;;;;;;5095176;28;20421;-56
2023/07/06 02:09:47;;;;;;;11.07;5.97;;;12.60;1.00;;;;;;5095485;28;20434;-56
2023/07/06 02:12:13;;;;;;;10.47;6.57;;;12.50;1.00;;;;;;5095348;28;20506;-56
2023/07/06 02:14:40;;;;;;;12.00;6.07;;;12.50;2.20;;;;;;5095397;28;20923;-56
2023/07/06 02:17:07;;;;;;;10.63;6.67;;;12.50;99.90;;;;;;5095090;28;20641;-56
2023/07/06 02:19:35;;;;;;;15.97;7.30;;;12.40;1.00;;;;;;5095158;28;20478;-56
2023/07/06 02:22:03;;;;;;;8.80;6.07;;;12.50;1.00;;;;;;5095365;28;20443;-56
2023/07/06 02:24:28;;;;;;;13.33;6.57;;;12.40;99.90;;;;;;5095164;28;20450;-56
2023/07/06 02:26:54;;;;;;;11.93;5.80;;;12.50;1.00;;;;;;5095130;28;20424;-56
2023/07/06 02:29:22;;;;;;;9.73;6.30;;;12.50;99.90;;;;;;5095094;28;20200;-56
2023/07/06 02:31:48;;;;;;;10.93;6.83;;;12.50;1.00;;;;;;5095279;28;20426;-56
2023/07/06 02:34:14;;;;;;;15.90;7.03;;;12.40;1.00;;;;;;5094664;28;20404;-56
2023/07/06 02:36:40;;;;;;;8.67;5.93;;;12.40;1.00;;;;;;5095205;28;20744;-55
2023/07/06 02:39:06;;;;;;;17.17;6.57;;;12.30;1.00;;;;;;5094608;28;20222;-56
2023/07/06 02:41:31;;;;;;;11.03;6.53;;;12.30;1.00;;;;;;5094415;28;20415;-56
2023/07/06 02:43:57;;;;;;;11.50;6.47;;;12.30;99.90;;;;;;5094731;28;20173;-56
2023/07/06 02:46:23;;;;;;;13.37;7.30;;;12.30;1.00;;;;;;5094631;28;20543;-56
2023/07/06 02:48:50;;;;;;;10.37;6.63;;;12.40;1.00;;;;;;5095118;28;20419;-56
2023/07/06 02:51:16;;;;;;;13.07;6.83;;;12.30;99.90;;;;;;5094573;28;20726;-56
2023/07/06 02:53:41;;;;;;;13.27;6.70;;;12.30;99.90;;;;;;5094542;28;20474;-56
2023/07/06 02:56:07;;;;;;;9.63;6.70;;;12.20;1.00;;;;;;5094292;28;20411;-56
2023/07/06 02:58:34;;;;;;;13.97;6.80;;;12.20;99.90;;;;;;5094572;28;20258;-55
2023/07/06 03:01:00;;;;;;;9.23;6.80;;;12.30;1.00;;;;;;5094431;28;20181;-56
2023/07/06 03:03:26;;;;;;;15.37;7.27;;;12.20;99.90;;;;;;5092992;28;20940;-56
2023/07/06 03:05:52;;;;;;;13.93;7.30;;;12.20;99.90;;;;;;5094334;28;20467;-56
2023/07/06 03:08:17;;;;;;;16.07;8.37;;;12.20;99.90;;;;;;5094192;28;20193;-57
2023/07/06 03:10:46;;;;;;;12.60;6.90;;;12.20;99.90;;;;;;5094077;28;20181;-57
2023/07/06 03:13:15;;;;;;;15.63;7.73;;;12.20;1.00;;;;;;5094095;28;20553;-56
2023/07/06 03:15:41;;;;;;;12.93;7.90;;;12.20;1.00;;;;;;5094717;28;20449;-56
2023/07/06 03:18:08;;;;;;;11.63;6.90;;;12.20;99.90;;;;;;5094338;28;20488;-56
2023/07/06 03:20:37;;;;;;;12.37;7.90;;;12.10;1.00;;;;;;5094133;28;20181;-55
2023/07/06 03:23:03;;;;;;;10.63;7.60;;;12.10;1.00;;;;;;5094185;28;20423;-55
2023/07/06 03:25:29;;;;;;;15.20;8.30;;;12.10;1.00;;;;;;5094184;28;20427;-56
2023/07/06 03:27:56;;;;;;;11.90;7.57;;;12.10;99.90;;;;;;5094282;28;20560;-55
2023/07/06 03:30:24;;;;;;;13.33;8.23;;;12.10;99.90;;;;;;5093848;28;20857;-55
2023/07/06 03:32:51;;;;;;;15.07;8.33;;;12.10;99.90;;;;;;5093705;28;20416;-55
2023/07/06 03:35:18;;;;;;;13.53;8.30;;;12.20;1.00;;;;;;5093895;28;20480;-55
2023/07/06 03:37:45;;;;;;;17.90;8.73;;;12.20;1.00;;;;;;5093984;28;20464;-56
2023/07/06 03:40:12;;;;;;;16.13;8.00;;;12.20;1.00;;;;;;5094269;28;20422;-55
2023/07/06 03:42:43;;;;;;;13.03;8.50;;;12.20;99.90;;;;;;5094013;28;20487;-54
2023/07/06 03:45:11;;;;;;;14.87;8.00;;;12.20;1.00;;;;;;5093710;28;20727;-55
2023/07/06 03:47:42;;;;;;;14.03;8.30;;;12.30;1.00;;;;;;5093851;28;20444;-55
2023/07/06 03:50:09;;;;;;;14.20;8.53;;;12.30;1.00;;;;;;5094036;28;20412;-55
2023/07/06 03:52:37;;;;;;;15.63;8.60;;;12.30;1.00;;;;;;5094012;28;20404;-55
2023/07/06 03:55:05;;;;;;;12.50;8.43;;;12.30;99.90;;;;;;5097081;28;20943;-55
2023/07/06 03:57:31;;;;;;;15.83;8.90;;;12.30;23.50;;;;;;5098180;28;20407;-55
2023/07/06 03:59:56;;;;;;;16.33;10.07;;;12.30;99.90;;;;;;5097950;28;20926;-55
2023/07/06 04:02:22;;;;;;;13.00;9.67;;;12.30;99.90;;;;;;5097998;28;20186;-55
2023/07/06 04:04:48;;;;;;;10.20;8.43;;;12.30;99.90;;;;;;5098288;28;20189;-55
2023/07/06 04:07:13;;;;;;;14.30;9.30;;;12.30;99.90;;;;;;5097870;28;20178;-55
2023/07/06 04:09:39;;;;;;;12.63;8.57;;;12.30;99.90;;;;;;5098128;28;20178;-55
2023/07/06 04:12:08;;;;;;;15.27;9.87;;;12.40;99.90;;;;;;5098155;28;20200;-55
2023/07/06 04:14:34;;;;;;;16.53;9.97;;;12.50;99.90;;;;;;5097684;28;20185;-55
2023/07/06 04:17:00;;;;;;;13.97;9.70;;;12.50;1.00;;;;;;5097774;28;20412;-56
2023/07/06 04:19:25;;;;;;;15.97;9.70;;;12.50;99.90;;;;;;5097815;28;20274;-56
2023/07/06 04:21:52;;;;;;;15.93;9.67;;;12.50;99.90;;;;;;5097640;28;20298;-55
2023/07/06 04:24:17;;;;;;;13.63;9.23;;;12.60;99.90;;;;;;5097519;28;20548;-56
2023/07/06 04:26:47;;;;;;;17.40;10.10;;;12.60;1.00;;;;;;5097512;28;20412;-56
2023/07/06 04:29:13;;;;;;;16.73;10.03;;;12.60;99.90;;;;;;5097406;28;20231;-56
2023/07/06 04:31:39;;;;;;;15.77;9.70;;;12.70;1.00;;;;;;5097078;28;20415;-55
2023/07/06 04:34:05;;;;;;;17.80;9.40;;;12.80;1.00;;;;;;5097509;28;20407;-56
2023/07/06 04:36:31;;;;;;;15.10;9.60;;;12.80;1.00;;;;;;5097683;28;20419;-56
2023/07/06 04:39:00;;;;;;;17.37;10.20;;;12.90;92.30;;;;;;5097374;28;20462;-56
2023/07/06 04:41:27;;;;;;;16.13;9.70;;;12.90;1.00;;;;;;5097023;28;20410;-56
2023/07/06 04:43:53;;;;;;;16.90;9.23;;;13.00;23.00;;;;;;5097146;28;20415;-56
2023/07/06 04:46:23;;;;;;;13.93;9.40;;;13.10;99.90;;;;;;5097014;28;20411;-56
2023/07/06 04:48:49;;;;;;;15.63;10.03;;;13.20;99.90;;;;;;5096976;28;20424;-56
2023/07/06 04:51:15;;;;;;;14.23;9.50;;;13.30;99.90;;;;;;5096892;28;20414;-56
2023/07/06 04:53:42;;;;;;;12.70;9.33;;;13.50;1.00;;;;;;5096738;28;20549;-55
2023/07/06 04:56:08;;;;;;;17.70;9.37;;;13.50;99.90;;;;;;5096865;28;20953;-56
2023/07/06 04:58:34;;;;;;;14.33;9.00;;;13.60;1.00;;;;;;5096935;28;20464;-54
2023/07/06 05:01:05;;;;;;;16.27;9.07;;;13.70;99.90;;;;;;5096867;28;20221;-56
2023/07/06 05:03:31;;;;;;;16.00;9.00;;;13.80;1.00;;;;;;5096508;28;20408;-56
2023/07/06 05:06:02;;;;;;;15.60;8.30;;;13.90;1.00;;;;;;5096356;28;20408;-56
2023/07/06 05:08:27;;;;;;;12.03;8.60;;;14.00;1.00;;;;;;5096855;28;20412;-57
2023/07/06 05:10:53;;;;;;;16.83;9.63;;;14.00;99.90;;;;;;5096706;28;20416;-57
2023/07/06 05:13:22;;;;;;;17.93;8.23;;;14.20;99.90;;;;;;5096564;28;20269;-58
2023/07/06 05:15:48;;;;;;;12.93;7.93;;;14.30;99.90;;;;;;5096925;28;20178;-57
2023/07/06 05:18:15;;;;;;;17.03;8.70;;;14.40;34.90;;;;;;5096376;28;20543;-57
2023/07/06 05:20:40;;;;;;;16.23;8.60;;;14.50;1.00;;;;;;5096601;28;20735;-57
2023/07/06 05:23:08;;;;;;;11.40;8.03;;;14.60;1.00;;;;;;5096610;28;20419;-58
2023/07/06 05:25:36;;;;;;;18.10;8.53;;;14.60;1.00;;;;;;5096345;28;20182;-58
2023/07/06 05:28:02;;;;;;;13.10;8.27;;;14.60;1.00;;;;;;5095644;28;20423;-57
2023/07/06 05:30:28;;;;;;;15.07;8.37;;;14.70;1.00;;;;;;5095761;28;20432;-57
2023/07/06 05:32:54;;;;;;;12.77;7.87;;;14.80;99.90;;;;;;5095837;28;20818;-59
2023/07/06 05:35:22;;;;;;;12.17;7.90;;;14.90;99.90;;;;;;5095991;28;20428;-58
2023/07/06 05:37:48;;;;;;;16.70;7.93;;;15.10;99.90;;;;;;5096406;28;20221;-58
2023/07/06 05:40:14;;;;;;;11.20;7.90;;;15.20;99.90;;;;;;5096484;28;20469;-58
2023/07/06 05:42:40;;;;;;;9.17;7.80;;;15.20;99.90;;;;;;5095785;28;20413;-56
2023/07/06 05:45:08;;;;;;;9.60;7.80;;;15.20;99.90;;;;;;5095787;28;20496;-58
2023/07/06 05:47:33;;;;;;;13.30;7.60;;;15.40;99.90;;;;;;5095850;28;20185;-58
2023/07/06 05:49:59;;;;;;;10.37;7.80;;;15.50;99.90;;;;;;5095245;28;20425;-57
2023/07/06 05:52:26;;;;;;;12.83;7.20;;;15.80;99.90;;;;;;5095700;28;20188;-58
2023/07/06 05:54:52;;;;;;;8.37;7.23;;;15.90;82.40;;;;;;5095104;28;20240;-58
2023/07/06 05:57:19;;;;;;;9.77;6.80;;;16.00;81.90;;;;;;5095537;28;20414;-58
2023/07/06 05:59:46;;;;;;;12.80;6.60;;;16.10;45.50;;;;;;5095584;28;20277;-57
2023/07/06 06:02:16;;;;;;;9.43;6.77;;;16.40;28.70;;;;;;5095797;28;20419;-57
2023/07/06 06:04:42;;;;;;;8.33;5.93;;;16.60;1.00;;;;;;5094967;28;20422;-59
2023/07/06 06:07:09;;;;;;;9.67;6.13;;;16.90;1.00;;;;;;5095340;28;20894;-58
2023/07/06 06:09:35;;;;;;;9.50;5.87;;;17.00;1.00;;;;;;5095344;28;20422;-56
2023/07/06 06:12:01;;;;;;;8.07;6.20;;;17.00;1.00;;;;;;5095351;28;20422;-57
2023/07/06 06:14:27;;;;;;;13.00;6.80;;;17.10;1.00;;;;;;5095232;28;20263;-59
2023/07/06 06:16:53;;;;;;;10.37;6.70;;;17.10;1.00;;;;;;5094795;28;20429;-58
2023/07/06 06:19:20;;;;;;;14.50;6.40;;;17.30;1.00;;;;;;5095072;28;20557;-56
2023/07/06 06:21:46;;;;;;;13.00;6.00;;;17.30;1.00;;;;;;5094988;28;20191;-58
2023/07/06 06:24:11;;;;;;;16.80;6.57;;;17.20;1.00;;;;;;5094861;28;20430;-59
2023/07/06 06:26:39;;;;;;;12.00;6.47;;;17.00;1.00;;;;;;5094886;28;20185;-57
2023/07/06 06:29:05;;;;;;;17.40;7.30;;;16.80;1.00;;;;;;5095239;28;20240;-57
2023/07/06 06:31:32;;;;;;;11.13;6.93;;;16.80;1.00;;;;;;5093827;28;20430;-59
2023/07/06 06:33:57;;;;;;;12.40;7.13;;;16.90;1.00;;;;;;5095410;28;20297;-58
2023/07/06 06:36:23;;;;;;;11.90;6.87;;;17.20;1.00;;;;;;5095187;28;20958;-58
2023/07/06 06:38:49;;;;;;;19.87;7.30;;;17.60;1.00;;;;;;5094795;28;20200;-58
2023/07/06 06:41:15;;;;;;;11.40;6.20;;;17.80;1.00;;;;;;5095098;28;20221;-59
2023/07/06 06:43:44;;;;;;;8.60;6.20;;;18.00;1.00;;;;;;5095186;28;20219;-58
2023/07/06 06:46:11;;;;;;;12.17;6.13;;;18.10;1.00;;;;;;5094946;28;20464;-57
2023/07/06 06:48:37;;;;;;;13.73;6.27;;;18.10;1.00;;;;;;5094453;28;20554;-58
2023/07/06 06:51:04;;;;;;;14.83;5.63;;;18.00;1.00;;;;;;5094458;28;20732;-58
2023/07/06 06:53:30;;;;;;;7.07;5.00;;;18.10;1.00;;;;;;5094807;28;20184;-60
2023/07/06 06:55:57;;;;;;;16.60;5.50;;;18.30;1.00;;;;;;5094910;28;20480;-58
2023/07/06 06:58:23;;;;;;;10.77;5.13;;;18.60;1.00;;;;;;5094731;28;20553;-58
2023/07/06 07:00:59;;;;;;;9.77;4.57;;;19.00;1.00;;;;;;5094708;28;20423;-59
2023/07/06 07:03:27;;;;;;;8.23;4.23;;;19.00;1.00;;;;;;5094550;28;20406;-59
2023/07/06 07:06:13;;;;;;;9.57;4.47;;;19.00;1.00;;;;;;5094483;28;20419;-59
2023/07/06 07:08:49;;;;;;;13.70;5.13;;;19.20;1.00;;;;;;5094228;28;20391;-60
2023/07/06 07:11:19;;;;;;;11.30;5.80;;;19.30;1.00;;;;;;5094239;28;20410;-59
2023/07/06 07:13:49;;;;;;;8.87;4.30;;;19.30;1.00;;;;;;5094234;28;20460;-59
2023/07/06 07:16:15;;;;;;;5.90;3.80;;;19.20;1.00;;;;;;5094283;28;20843;-59
2023/07/06 07:18:43;;;;;;;8.17;4.00;;;19.40;1.00;;;;;;5094202;28;20482;-59
2023/07/06 07:21:09;;;;;;;8.87;5.13;;;19.50;1.00;;;;;;5093882;28;20416;-59
2023/07/06 07:23:41;;;;;;;8.93;4.73;;;19.70;1.00;;;;;;5093824;28;20914;-59
2023/07/06 07:26:08;;;;;;;8.90;3.87;;;19.80;1.00;;;;;;5094203;28;20439;-59
2023/07/06 07:28:34;;;;;;;6.77;3.50;;;19.90;1.00;;;;;;5093118;28;20428;-59
2023/07/06 07:31:01;;;;;;;5.43;3.50;;;20.20;1.00;;;;;;5094101;28;20415;-59
2023/07/06 07:33:28;;;;;;;7.47;3.50;;;20.20;1.00;;;;;;5093819;28;20213;-59
2023/07/06 07:35:59;;;;;;;9.70;3.63;;;20.30;1.00;;;;;;5094146;28;20442;-60
2023/07/06 07:38:24;;;;;;;5.37;3.97;;;20.40;1.00;;;;;;5094143;28;20448;-60
2023/07/06 07:40:56;;;;;;;5.40;2.93;;;20.70;1.00;;;;;;5094320;28;20511;-60
2023/07/06 07:43:25;;;;;;;5.53;3.43;;;20.80;1.00;;;;;;5093738;28;20184;-59
2023/07/06 07:45:55;;;;;;;5.37;3.40;;;21.10;1.00;;;;;;5094113;28;20412;-59
2023/07/06 07:48:25;;;;;;;10.53;4.40;;;21.40;1.00;;;;;;5093862;28;20956;-60
2023/07/06 07:50:53;;;;;;;6.47;3.20;;;21.50;1.00;;;;;;5086308;28;20416;-57
2023/07/06 07:53:22;;;;;;;4.50;3.10;;;21.30;1.00;;;;;;5088450;28;20436;-56
2023/07/06 07:55:48;;;;;;;9.60;3.63;;;21.20;1.00;;;;;;5094049;28;20406;-61
2023/07/06 07:58:14;;;;;;;7.40;4.20;;;21.50;1.00;;;;;;5093628;28;20522;-60
2023/07/06 08:00:40;;;;;;;4.80;2.93;;;21.60;1.00;;;;;;5093725;28;20432;-59
2023/07/06 08:03:07;;;;;;;5.33;2.93;;;21.80;1.00;;;;;;5093964;28;20174;-60
2023/07/06 08:05:37;;;;;;;4.50;2.80;;;21.80;1.00;;;;;;5094024;28;20194;-59
2023/07/06 08:08:04;;;;;;;6.07;3.07;;;21.70;1.00;;;;;;5094018;28;20429;-60
2023/07/06 08:10:30;;;;;;;7.93;3.90;;;21.50;1.00;;;;;;5093967;28;20538;-59
2023/07/06 08:12:55;;;;;;;5.67;2.43;;;21.00;1.00;;;;;;5093803;28;20419;-59
2023/07/06 08:15:22;;;;;;;5.77;3.13;;;20.70;1.00;;;;;;5093576;28;20921;-60
2023/07/06 08:17:48;;;;;;;5.10;3.27;;;20.90;1.00;;;;;;5093965;28;20296;-59
2023/07/06 08:20:14;;;;;;;7.63;2.27;;;20.80;1.00;;;;;;5093491;28;20968;-58
2023/07/06 08:22:40;;;;;;;2.57;2.00;;;21.30;1.00;;;;;;5093259;28;20190;-58
2023/07/06 08:25:08;;;;;;;4.67;2.60;;;21.30;1.00;;;;;;5093252;28;20194;-55
2023/07/06 08:27:35;;;;;;;4.30;2.67;;;21.10;1.00;;;;;;5093517;28;20920;-56
2023/07/06 08:30:01;;;;;;;6.27;2.47;;;21.30;1.00;;;;;;5093532;28;20499;-58
2023/07/06 08:32:27;;;;;;;4.37;2.60;;;21.90;1.00;;;;;;5093439;28;20419;-58
2023/07/06 08:34:56;;;;;;;4.13;2.50;;;22.00;1.00;;;;;;5093637;28;20418;-59
2023/07/06 08:37:21;;;;;;;5.80;3.03;;;22.40;1.00;;;;;;5093731;28;20190;-60
2023/07/06 08:39:47;;;;;;;5.90;2.83;;;22.50;1.00;;;;;;5094586;28;20964;-58
2023/07/06 08:42:18;;;;;;;3.53;2.70;;;22.10;1.00;;;;;;5097354;28;20534;-59
2023/07/06 08:44:50;;;;;;;4.33;2.33;;;21.90;1.00;;;;;;5097159;28;20207;-59
2023/07/06 08:47:17;;;;;;;5.20;2.30;;;21.70;1.00;;;;;;5097157;28;20443;-59
2023/07/06 08:49:43;;;;;;;5.67;2.90;;;22.00;1.00;;;;;;5096733;28;20445;-57
2023/07/06 08:52:12;;;;;;;7.93;2.60;;;22.00;1.00;;;;;;5096754;28;20417;-57
2023/07/06 08:54:39;;;;;;;5.07;2.73;;;21.80;1.00;;;;;;5096237;28;20474;-60
2023/07/06 08:57:30;;;;;;;3.43;3.10;;;21.60;1.00;;;;;;5096729;28;20418;-58
2023/07/06 08:59:56;;;;;;;3.90;2.70;;;22.00;1.00;;;;;;5096976;28;20422;-58
2023/07/06 09:02:24;;;;;;;4.33;2.70;;;22.70;1.00;;;;;;5096539;28;20950;-57
2023/07/06 09:04:52;;;;;;;3.50;2.60;;;23.20;1.00;;;;;;5096493;28;20521;-56
2023/07/06 09:07:22;;;;;;;3.70;2.27;;;23.10;1.00;;;;;;5096418;28;20430;-58
2023/07/06 09:09:49;;;;;;;5.70;2.73;;;23.30;1.00;;;;;;5096780;28;20454;-59
2023/07/06 09:12:32;;;;;;;4.53;2.40;;;23.20;1.00;;;;;;5096604;28;20411;-60
2023/07/06 09:14:59;;;;;;;3.83;2.13;;;23.30;1.00;;;;;;5096640;28;20414;-60
2023/07/06 09:17:26;;;;;;;2.60;2.40;;;23.90;1.00;;;;;;5096756;28;20415;-59
2023/07/06 09:19:53;;;;;;;3.13;1.90;;;24.10;1.00;;;;;;5096863;28;20451;-59
2023/07/06 09:22:22;;;;;;;5.10;2.20;;;24.00;1.00;;;;;;5096542;28;20446;-60
2023/07/06 09:24:49;;;;;;;5.90;2.60;;;24.00;1.00;;;;;;5096374;28;20418;-56
2023/07/06 09:27:22;;;;;;;2.90;2.17;;;23.70;1.00;;;;;;5096640;28;20423;-57
2023/07/06 09:30:01;;;;;;;4.43;2.43;;;24.20;1.00;;;;;;5096663;28;20556;-58
2023/07/06 09:32:29;;;;;;;3.50;2.30;;;24.70;1.00;;;;;;5096373;28;20509;-58
2023/07/06 09:35:00;;;;;;;5.13;2.37;;;24.60;1.00;;;;;;5096311;28;20803;-58
2023/07/06 09:37:26;;;;;;;3.87;2.30;;;24.60;1.00;;;;;;5096621;28;20413;-56
2023/07/06 09:40:00;;;;;;;3.60;2.27;;;24.30;1.00;;;;;;5096223;28;20445;-58
2023/07/06 09:42:27;;;;;;;3.23;2.37;;;23.90;1.00;;;;;;5096139;28;20414;-55
2023/07/06 09:44:53;;;;;;;2.23;1.97;;;23.60;1.00;;;;;;5096280;28;20429;-60
2023/07/06 09:47:20;;;;;;;2.20;1.90;;;23.80;1.00;;;;;;5095836;28;20462;-57
2023/07/06 09:50:20;;;;;;;3.27;1.93;;;24.20;1.00;;;;;;5095766;28;20425;-56
2023/07/06 09:52:47;;;;;;;5.13;2.00;;;24.50;1.00;;;;;;5095306;28;20408;-56
2023/07/06 09:55:29;;;;;;;3.37;1.90;;;25.10;1.00;;;;;;5095277;28;20479;-55
2023/07/06 09:57:59;;;;;;;2.83;2.10;;;25.70;1.00;;;;;;5096111;28;20487;-57
2023/07/06 10:00:35;;;;;;;3.03;2.37;;;25.50;99.90;;;;;;5095472;28;20415;-56
2023/07/06 10:03:18;;;;;;;3.37;2.17;;;25.30;99.90;;;;;;5095638;28;20510;-57
2023/07/06 10:05:53;;;;;;;4.17;1.73;;;25.50;99.90;;;;;;5095424;28;20402;-56
2023/07/06 10:08:29;;;;;;;9.07;5.53;;;25.60;99.90;;;;;;5095591;28;20403;-58
2023/07/06 10:11:13;;;;;;;42.27;32.67;;;25.90;99.90;;;;;;5095278;28;20429;-58
2023/07/06 10:13:56;;;;;;;7.23;2.40;;;26.00;99.90;;;;;;5095788;28;20408;-57
2023/07/06 10:16:37;;;;;;;5.33;2.07;;;25.30;99.90;;;;;;5095413;28;20899;-59
2023/07/06 10:19:26;;;;;;;2.90;2.30;;;24.00;99.90;;;;;;5095453;28;20502;-60
2023/07/06 10:22:04;;;;;;;3.10;2.43;;;23.10;99.90;;;;;;5074750;28;20426;-58
2023/07/06 10:24:43;;;;;;;3.90;2.47;;;22.80;99.90;;;;;;5095270;28;20405;-55
2023/07/06 10:27:18;;;;;;;3.80;2.60;;;22.20;99.90;;;;;;5095068;28;20416;-58
2023/07/06 10:30:01;;;;;;;3.70;2.60;;;21.80;99.90;;;;;;5094813;28;20497;-57
2023/07/06 10:32:32;;;;;;;3.77;2.40;;;21.50;99.90;;;;;;5095408;28;20405;-59
2023/07/06 10:35:04;;;;;;;6.97;2.87;;;21.20;99.90;;;;;;5095117;28;20414;-61
2023/07/06 10:37:31;;;;;;;3.77;2.67;;;20.90;99.90;;;;;;5095310;28;20463;-58
2023/07/06 10:40:19;;;;;;;3.27;2.33;;;20.80;99.90;;;;;;5094991;28;20424;-58
2023/07/06 10:42:49;;;;;;;4.70;2.60;;;20.70;1.00;;;;;;5094837;28;20407;-56
2023/07/06 10:45:28;;;;;;;4.27;2.00;;;20.80;99.90;;;;;;5094788;28;20436;-59
2023/07/06 10:48:11;;;;;;;4.20;2.57;;;20.80;1.00;;;;;;5095240;28;20475;-59
2023/07/06 10:50:46;;;;;;;6.57;2.60;;;20.90;1.00;;;;;;5094920;28;20408;-57
2023/07/06 10:53:39;;;;;;;2.10;2.00;;;21.30;1.00;;;;;;5094814;28;20428;-56
2023/07/06 10:56:17;;;;;;;3.30;2.63;;;22.70;1.00;;;;;;5094858;28;20444;-58
2023/07/06 10:58:54;;;;;;;6.00;2.90;;;24.10;99.90;;;;;;5094540;28;20845;-60
2023/07/06 11:01:22;;;;;;;2.90;2.30;;;25.40;99.90;;;;;;5094223;28;20424;-54
2023/07/06 11:03:48;;;;;;;2.50;2.30;;;26.30;99.90;;;;;;5093692;28;20498;-58
2023/07/06 11:06:17;;;;;;;4.77;2.60;;;27.20;99.90;;;;;;5094275;28;20435;-58
2023/07/06 11:09:10;;;;;;;4.83;1.87;;;27.40;99.90;;;;;;5094678;28;20415;-58
2023/07/06 11:11:41;;;;;;;2.40;2.20;;;27.50;99.90;;;;;;5094646;28;20506;-57
2023/07/06 11:14:30;;;;;;;8.67;2.80;;;27.40;99.90;;;;;;5094563;28;20438;-58
2023/07/06 11:17:04;;;;;;;3.47;2.07;;;27.40;99.90;;;;;;5094287;28;20756;-58
2023/07/06 11:19:42;;;;;;;2.03;1.83;;;27.40;99.90;;;;;;5094038;28;20496;-59
2023/07/06 11:22:18;;;;;;;2.50;1.80;;;26.50;99.90;;;;;;5094274;28;20430;-58
2023/07/06 11:24:49;;;;;;;3.13;1.73;;;25.30;99.90;;;;;;5094163;28;20469;-59
2023/07/06 11:27:30;;;;;;;2.83;1.90;;;24.80;99.90;;;;;;5093948;28;20895;-58
2023/07/06 11:30:10;;;;;;;3.60;2.00;;;25.30;99.90;;;;;;5093884;28;20404;-58
2023/07/06 11:32:51;;;;;;;2.50;1.90;;;26.00;99.90;;;;;;5094140;28;20871;-57
2023/07/06 11:35:45;;;;;;;2.90;1.60;;;26.40;99.90;;;;;;5093857;28;20863;-58
2023/07/06 11:38:37;;;;;;;3.47;1.70;;;26.40;99.90;;;;;;5093631;28;20465;-58
2023/07/06 11:41:29;;;;;;;2.50;1.80;;;25.80;99.90;;;;;;5093704;28;20407;-57
2023/07/06 11:44:24;;;;;;;2.57;1.73;;;24.70;99.90;;;;;;5093995;28;20408;-56
2023/07/06 11:47:28;;;;;;;2.60;1.73;;;23.80;99.90;;;;;;5066123;28;20445;-56
2023/07/06 11:50:02;;;;;;;5.60;1.90;;;22.80;99.90;;;;;;4994962;28;20442;-56
2023/07/06 11:52:31;;;;;;;6.93;2.20;;;22.10;99.90;;;;;;5009757;28;20492;-56
2023/07/06 11:55:50;;;;;;;2.90;1.80;;;21.70;99.90;;;;;;5010596;28;20490;-54
2023/07/06 11:58:04;;;;;;;3.10;2.17;;;21.60;99.90;;;;;;5020856;28;20440;-57
2023/07/06 12:03:06;;;;;;;2.70;2.13;;;21.40;99.90;;;;;;5010775;28;20417;-56
2023/07/06 12:05:37;;;;;;;2.17;1.97;;;21.20;99.90;;;;;;5009847;28;20426;-56
2023/07/06 12:08:16;;;;;;;4.27;2.20;;;21.30;99.90;;;;;;5010699;28;20433;-57
2023/07/06 12:10:50;;;;;;;3.60;2.30;;;21.60;99.90;;;;;;5011026;28;20446;-57
2023/07/06 12:13:28;;;;;;;5.00;2.43;;;21.90;99.90;;;;;;5011077;28;20492;-57
2023/07/06 12:15:56;;;;;;;6.17;2.93;;;21.70;99.90;;;;;;5013937;28;20493;-58
2023/07/06 12:18:23;;;;;;;2.90;2.57;;;21.60;99.90;;;;;;5014322;28;20548;-57
2023/07/06 12:20:53;;;;;;;3.97;2.33;;;21.90;99.90;;;;;;5014331;28;20452;-58
2023/07/06 12:23:18;;;;;;;4.77;3.17;;;22.20;99.90;;;;;;5014212;28;20753;-57
2023/07/06 12:25:44;;;;;;;4.20;2.77;;;22.30;99.90;;;;;;5014051;28;20519;-58
2023/07/06 12:28:15;;;;;;;5.40;2.70;;;22.90;99.90;;;;;;5013936;28;20211;-58
2023/07/06 12:30:43;;;;;;;5.00;2.90;;;23.70;99.90;;;;;;5014017;28;20624;-58
2023/07/06 12:33:13;;;;;;;5.40;2.40;;;24.30;99.90;;;;;;5013675;28;20882;-57
2023/07/06 12:35:40;;;;;;;3.97;2.67;;;25.00;99.90;;;;;;5013737;28;20501;-58
2023/07/06 12:38:11;;;;;;;3.70;2.30;;;25.80;99.90;;;;;;5013742;28;20470;-58
2023/07/06 12:40:37;;;;;;;2.50;2.30;;;26.10;99.90;;;;;;5013940;28;20509;-58
2023/07/06 12:43:04;;;;;;;3.70;2.70;;;26.10;99.90;;;;;;5013968;28;20499;-58
2023/07/06 12:45:31;;;;;;;4.87;2.47;;;26.10;99.90;;;;;;5013656;28;20734;-59
2023/07/06 12:48:03;;;;;;;2.37;2.17;;;26.40;99.90;;;;;;5014153;28;20874;-58
2023/07/06 12:50:41;;;;;;;4.00;2.40;;;26.60;99.90;;;;;;5014193;28;20502;-56
2023/07/06 12:53:14;;;;;;;4.73;2.37;;;27.30;99.90;;;;;;5013827;28;20551;-56
2023/07/06 12:55:44;;;;;;;5.00;2.53;;;27.60;99.90;;;;;;5013838;28;20778;-56
2023/07/06 12:58:28;;;;;;;3.40;2.37;;;27.50;99.90;;;;;;5013325;28;21007;-56
2023/07/06 13:01:25;;;;;;;4.77;2.20;;;28.00;99.90;;;;;;5013392;28;20445;-56
2023/07/06 13:03:56;;;;;;;6.50;2.40;;;27.20;99.90;;;;;;5013769;28;20435;-55
2023/07/06 13:06:24;;;;;;;4.77;2.60;;;25.60;99.90;;;;;;5013579;28;20419;-57
2023/07/06 13:08:59;;;;;;;4.47;2.53;;;24.20;99.90;;;;;;5013526;28;20452;-57